Time;durP1;ratioP1;P1;durP2;ratioP2;P2;SDS_P1;SDS_P2;PMS_P1;PMS_P2;Temp;Humidity;BMP_temperature;BMP_pressure;BME280_temperature;BME280_humidity;BME280_pressure;Samples;Min_cycle;Max_cycle;Signal;HPM_P1;HPM_P2
2023/06/13 00:00:16;;;;;;;6.70;2.93;;;;;;;;;;4947734;29;20181;-72
2023/06/13 00:03:20;;;;;;;4.43;2.50;;;;;;;;;;4937398;29;20188;-72
2023/06/13 00:06:27;;;;;;;3.83;2.63;;;;;;;;;;4947829;29;20632;-72
2023/06/13 00:09:31;;;;;;;3.53;2.60;;;;;;;;;;4936434;29;20211;-72
2023/06/13 00:12:36;;;;;;;3.47;2.70;;;;;;;;;;4936921;29;20219;-72
2023/06/13 00:15:48;;;;;;;3.87;2.60;;;;;;;;;;4947360;29;20184;-72
2023/06/13 00:18:53;;;;;;;2.77;2.43;;;;;;;;;;4947027;29;20525;-73
2023/06/13 00:21:58;;;;;;;4.40;2.60;;;;;;;;;;4936914;29;20220;-72
2023/06/13 00:25:02;;;;;;;8.70;2.37;;;;;;;;;;4936719;29;20199;-72
2023/06/13 00:28:06;;;;;;;8.33;2.70;;;;;;;;;;4935782;29;20667;-72
2023/06/13 00:31:10;;;;;;;4.20;2.50;;;;;;;;;;4935892;29;20231;-72
2023/06/13 00:34:15;;;;;;;4.23;2.73;;;;;;;;;;4947009;29;20188;-72
2023/06/13 00:37:20;;;;;;;4.50;2.60;;;;;;;;;;4936557;29;20176;-73
2023/06/13 00:40:25;;;;;;;3.30;2.43;;;;;;;;;;4935656;29;20204;-72
2023/06/13 00:43:29;;;;;;;4.77;2.50;;;;;;;;;;4936461;29;20200;-72
2023/06/13 00:46:34;;;;;;;4.60;2.90;;;;;;;;;;4946604;29;20188;-71
2023/06/13 00:49:41;;;;;;;4.57;2.53;;;;;;;;;;4946751;29;20212;-72
2023/06/13 00:52:47;;;;;;;4.10;2.30;;;;;;;;;;4946377;29;20220;-72
2023/06/13 00:55:51;;;;;;;5.53;3.00;;;;;;;;;;4935693;29;20191;-72
2023/06/13 00:59:00;;;;;;;3.83;2.50;;;;;;;;;;4936370;29;20195;-72
2023/06/13 01:02:04;;;;;;;5.80;2.73;;;;;;;;;;4935588;29;20553;-71
2023/06/13 01:05:11;;;;;;;7.13;2.73;;;;;;;;;;4935919;29;20176;-72
2023/06/13 01:08:20;;;;;;;6.00;2.47;;;;;;;;;;4946655;29;20188;-72
2023/06/13 01:11:52;;;;;;;5.37;2.60;;;;;;;;;;4936174;29;20227;-72
2023/06/13 01:15:04;;;;;;;4.17;2.73;;;;;;;;;;4946407;29;20192;-72
2023/06/13 01:18:10;;;;;;;3.47;2.47;;;;;;;;;;4935193;29;20184;-72
2023/06/13 01:21:14;;;;;;;4.20;2.50;;;;;;;;;;4935115;29;20212;-72
2023/06/13 01:24:30;;;;;;;2.80;2.50;;;;;;;;;;4946400;29;20200;-72
2023/06/13 01:27:36;;;;;;;2.93;2.20;;;;;;;;;;4946305;29;20628;-72
2023/06/13 01:30:43;;;;;;;3.93;2.20;;;;;;;;;;4963000;23;20206;-70
2023/06/13 01:33:47;;;;;;;3.07;2.60;;;;;;;;;;4947054;29;20191;-70
2023/06/13 01:36:52;;;;;;;5.83;2.40;;;;;;;;;;4958174;29;20184;-70
2023/06/13 01:39:56;;;;;;;3.70;2.47;;;;;;;;;;4958598;29;20638;-70
2023/06/13 01:43:00;;;;;;;5.50;2.30;;;;;;;;;;4957954;29;20218;-70
2023/06/13 01:46:28;;;;;;;6.23;2.60;;;;;;;;;;4958771;29;20203;-70
2023/06/13 01:50:10;;;;;;;3.27;2.37;;;;;;;;;;4969223;28;20210;-70
2023/06/13 01:53:36;;;;;;;5.60;2.50;;;;;;;;;;4957636;29;20642;-70
2023/06/13 01:56:42;;;;;;;5.20;2.77;;;;;;;;;;4957949;29;20188;-69
2023/06/13 01:59:52;;;;;;;10.87;2.57;;;;;;;;;;4957991;29;20180;-70
2023/06/13 02:02:57;;;;;;;3.17;2.33;;;;;;;;;;4957850;29;20230;-71
2023/06/13 02:06:01;;;;;;;3.57;2.33;;;;;;;;;;4957837;29;20183;-71
2023/06/13 02:09:05;;;;;;;3.50;2.50;;;;;;;;;;4957740;29;20188;-71
2023/06/13 02:12:11;;;;;;;6.10;2.93;;;;;;;;;;4957390;29;20207;-71
2023/06/13 02:15:15;;;;;;;5.53;2.37;;;;;;;;;;4946697;29;20673;-71
2023/06/13 02:18:20;;;;;;;3.67;2.40;;;;;;;;;;4946858;29;20184;-71
2023/06/13 02:21:24;;;;;;;3.73;2.63;;;;;;;;;;4957156;29;20211;-71
2023/06/13 02:24:28;;;;;;;5.33;2.37;;;;;;;;;;4958593;29;20615;-71
2023/06/13 02:27:32;;;;;;;2.57;2.33;;;;;;;;;;4957450;29;20187;-71
2023/06/13 02:30:36;;;;;;;4.07;2.60;;;;;;;;;;4958035;29;20216;-71
2023/06/13 02:33:43;;;;;;;3.63;2.33;;;;;;;;;;4957415;29;20188;-71
2023/06/13 02:36:49;;;;;;;3.30;2.30;;;;;;;;;;4957531;29;20631;-70
2023/06/13 02:39:55;;;;;;;2.70;2.37;;;;;;;;;;4957015;29;20180;-71
2023/06/13 02:43:00;;;;;;;7.13;2.50;;;;;;;;;;4945441;28;20218;-71
2023/06/13 02:46:04;;;;;;;6.77;2.40;;;;;;;;;;4956873;29;20199;-71
2023/06/13 02:49:09;;;;;;;4.67;2.60;;;;;;;;;;4956767;29;20199;-71
2023/06/13 02:52:13;;;;;;;2.13;1.90;;;;;;;;;;4956714;29;20215;-71
2023/06/13 02:55:17;;;;;;;5.07;2.80;;;;;;;;;;4956755;29;20195;-71
2023/06/13 02:58:22;;;;;;;6.17;2.90;;;;;;;;;;4957790;29;20183;-71
2023/06/13 03:01:27;;;;;;;4.57;2.90;;;;;;;;;;4945595;29;20215;-71
2023/06/13 03:04:33;;;;;;;4.20;2.90;;;;;;;;;;4956781;29;20176;-71
2023/06/13 03:07:42;;;;;;;5.90;2.43;;;;;;;;;;4956463;29;20199;-71
2023/06/13 03:10:48;;;;;;;4.10;2.80;;;;;;;;;;4945510;29;20212;-71
2023/06/13 03:13:53;;;;;;;3.50;2.80;;;;;;;;;;4956376;29;20203;-71
2023/06/13 03:16:59;;;;;;;4.63;2.77;;;;;;;;;;4956285;29;20199;-70
2023/06/13 03:20:06;;;;;;;5.07;3.20;;;;;;;;;;4956248;29;20200;-71
2023/06/13 03:23:16;;;;;;;4.20;2.73;;;;;;;;;;4956427;29;20183;-71
2023/06/13 03:26:22;;;;;;;5.30;2.77;;;;;;;;;;4956207;29;20204;-71
2023/06/13 03:29:28;;;;;;;3.77;2.80;;;;;;;;;;4945444;29;20655;-71
2023/06/13 03:32:32;;;;;;;5.90;2.57;;;;;;;;;;4956690;29;20223;-71
2023/06/13 03:35:38;;;;;;;4.90;3.00;;;;;;;;;;4956464;29;20196;-71
2023/06/13 03:38:43;;;;;;;4.60;2.47;;;;;;;;;;4944868;29;20187;-71
2023/06/13 03:41:47;;;;;;;6.33;2.53;;;;;;;;;;4956214;29;20675;-71
2023/06/13 03:44:51;;;;;;;4.33;2.90;;;;;;;;;;4945120;29;20191;-71
2023/06/13 03:47:55;;;;;;;5.40;2.90;;;;;;;;;;4955919;29;20540;-71
2023/06/13 03:50:59;;;;;;;8.30;3.00;;;;;;;;;;4955986;29;20203;-71
2023/06/13 03:54:05;;;;;;;5.13;3.17;;;;;;;;;;4956754;28;20188;-71
2023/06/13 03:57:10;;;;;;;2.80;2.40;;;;;;;;;;4956067;29;20519;-71
2023/06/13 04:00:15;;;;;;;7.07;2.77;;;;;;;;;;4944367;29;20532;-71
2023/06/13 04:03:19;;;;;;;4.43;2.67;;;;;;;;;;4956983;29;20528;-71
2023/06/13 04:06:28;;;;;;;5.63;2.77;;;;;;;;;;4955581;29;20179;-71
2023/06/13 04:09:33;;;;;;;6.60;2.90;;;;;;;;;;4955791;29;20175;-71
2023/06/13 04:12:39;;;;;;;3.60;3.00;;;;;;;;;;4955111;29;20203;-71
2023/06/13 04:15:43;;;;;;;4.00;2.83;;;;;;;;;;4944358;29;20191;-71
2023/06/13 04:18:47;;;;;;;6.77;3.13;;;;;;;;;;4955390;29;20183;-71
2023/06/13 04:21:51;;;;;;;5.60;2.90;;;;;;;;;;4954974;29;20215;-70
2023/06/13 04:24:55;;;;;;;4.13;3.03;;;;;;;;;;4956221;29;20627;-71
2023/06/13 04:28:00;;;;;;;6.20;3.23;;;;;;;;;;4944215;29;20188;-70
2023/06/13 04:31:04;;;;;;;6.87;2.90;;;;;;;;;;4955065;29;20235;-70
2023/06/13 04:34:08;;;;;;;3.50;2.83;;;;;;;;;;4954895;29;20192;-70
2023/06/13 04:37:13;;;;;;;5.37;3.10;;;;;;;;;;4954963;29;20187;-70
2023/06/13 04:40:18;;;;;;;6.10;3.00;;;;;;;;;;4955528;29;20191;-70
2023/06/13 04:43:22;;;;;;;4.53;2.77;;;;;;;;;;4954614;29;20199;-70
2023/06/13 04:46:26;;;;;;;5.37;2.90;;;;;;;;;;4955466;29;20175;-70
2023/06/13 04:49:30;;;;;;;8.00;3.50;;;;;;;;;;4954590;29;20179;-70
2023/06/13 04:52:35;;;;;;;4.60;3.17;;;;;;;;;;4955519;29;20211;-70
2023/06/13 04:55:40;;;;;;;6.40;3.23;;;;;;;;;;4952585;29;20655;-69
2023/06/13 04:58:44;;;;;;;4.50;2.83;;;;;;;;;;4965342;28;20547;-69
2023/06/13 05:01:49;;;;;;;4.23;2.63;;;;;;;;;;4943555;29;20215;-70
2023/06/13 05:04:55;;;;;;;4.97;2.50;;;;;;;;;;4954737;29;20183;-70
2023/06/13 05:08:00;;;;;;;5.63;3.10;;;;;;;;;;4955157;29;20180;-70
2023/06/13 05:11:04;;;;;;;4.53;2.70;;;;;;;;;;4954523;29;20231;-70
2023/06/13 05:14:08;;;;;;;7.03;2.93;;;;;;;;;;4954703;29;20640;-70
2023/06/13 05:17:14;;;;;;;9.13;3.20;;;;;;;;;;4955361;29;20183;-70
2023/06/13 05:20:22;;;;;;;3.70;3.10;;;;;;;;;;4954844;29;20188;-70
2023/06/13 05:23:28;;;;;;;6.17;2.87;;;;;;;;;;4953258;29;20211;-69
2023/06/13 05:26:33;;;;;;;9.67;2.77;;;;;;;;;;4954743;29;20179;-70
2023/06/13 05:29:38;;;;;;;5.93;2.70;;;;;;;;;;4954980;29;20179;-70
2023/06/13 05:32:42;;;;;;;7.83;2.77;;;;;;;;;;4954711;29;20698;-70
2023/06/13 05:35:46;;;;;;;4.37;2.50;;;;;;;;;;4954936;29;20527;-70
2023/06/13 05:38:50;;;;;;;3.77;2.60;;;;;;;;;;4954695;29;20513;-70
2023/06/13 05:41:54;;;;;;;4.17;2.93;;;;;;;;;;4943482;29;20217;-70
2023/06/13 05:44:58;;;;;;;7.53;2.77;;;;;;;;;;4954697;29;20179;-70
2023/06/13 05:48:02;;;;;;;3.70;2.63;;;;;;;;;;4954949;29;20183;-70
2023/06/13 05:51:07;;;;;;;8.37;2.30;;;;;;;;;;4954854;29;20227;-70
2023/06/13 05:54:11;;;;;;;5.17;2.50;;;;;;;;;;4954637;29;20195;-70
2023/06/13 05:57:17;;;;;;;6.17;2.87;;;;;;;;;;4954172;29;20188;-70
2023/06/13 06:00:22;;;;;;;6.10;2.90;;;;;;;;;;4955260;29;20187;-70
2023/06/13 06:03:26;;;;;;;4.93;2.67;;;;;;;;;;4953879;29;20184;-70
2023/06/13 06:06:30;;;;;;;5.77;2.13;;;;;;;;;;4954933;29;20183;-70
2023/06/13 06:09:34;;;;;;;3.90;2.03;;;;;;;;;;4953858;29;20187;-70
2023/06/13 06:12:39;;;;;;;4.13;2.23;;;;;;;;;;4953688;29;20227;-70
2023/06/13 06:15:43;;;;;;;2.30;2.10;;;;;;;;;;4954584;29;20192;-69
2023/06/13 06:18:48;;;;;;;6.63;2.97;;;;;;;;;;4956351;28;20184;-70
2023/06/13 06:21:52;;;;;;;5.13;2.20;;;;;;;;;;4958057;29;20215;-70
2023/06/13 06:24:56;;;;;;;8.90;2.23;;;;;;;;;;4958093;29;20191;-70
2023/06/13 06:28:01;;;;;;;2.53;1.87;;;;;;;;;;4958287;29;20238;-70
2023/06/13 06:31:08;;;;;;;3.20;2.07;;;;;;;;;;4958162;29;20227;-70
2023/06/13 06:34:12;;;;;;;5.90;2.03;;;;;;;;;;4957912;29;20203;-70
2023/06/13 06:37:16;;;;;;;3.87;2.13;;;;;;;;;;4957291;29;20180;-71
2023/06/13 06:40:20;;;;;;;5.13;2.37;;;;;;;;;;4957029;29;20200;-71
2023/06/13 06:43:24;;;;;;;4.10;2.00;;;;;;;;;;4958303;29;20183;-71
2023/06/13 06:46:28;;;;;;;3.73;2.07;;;;;;;;;;4957186;29;20180;-71
2023/06/13 06:49:32;;;;;;;3.27;2.17;;;;;;;;;;4956816;29;20226;-71
2023/06/13 06:52:36;;;;;;;3.67;2.07;;;;;;;;;;4956775;29;20702;-71
2023/06/13 06:55:41;;;;;;;5.90;2.50;;;;;;;;;;4957079;29;20188;-71
2023/06/13 06:58:45;;;;;;;4.47;1.90;;;;;;;;;;4956720;29;20183;-71
2023/06/13 07:01:50;;;;;;;3.47;2.27;;;;;;;;;;4956943;29;20219;-71
2023/06/13 07:04:54;;;;;;;4.93;1.90;;;;;;;;;;4957177;29;20191;-71
2023/06/13 07:07:58;;;;;;;5.20;2.20;;;;;;;;;;4957602;29;20631;-71
2023/06/13 07:11:03;;;;;;;5.97;2.40;;;;;;;;;;4957680;29;20223;-71
2023/06/13 07:14:07;;;;;;;4.33;2.20;;;;;;;;;;4957505;29;20516;-71
2023/06/13 07:17:11;;;;;;;3.27;2.50;;;;;;;;;;4956359;29;20195;-71
2023/06/13 07:20:16;;;;;;;3.90;2.30;;;;;;;;;;4957647;29;20180;-71
2023/06/13 07:23:20;;;;;;;5.47;2.17;;;;;;;;;;4956538;29;20175;-71
2023/06/13 07:26:24;;;;;;;3.63;2.10;;;;;;;;;;4956225;29;20183;-70
2023/06/13 07:29:28;;;;;;;6.97;2.27;;;;;;;;;;4957191;28;20180;-71
2023/06/13 07:32:32;;;;;;;4.13;2.70;;;;;;;;;;4956690;29;20243;-71
2023/06/13 07:35:37;;;;;;;3.27;2.40;;;;;;;;;;4970813;23;20239;-72
2023/06/13 07:38:42;;;;;;;2.43;2.03;;;;;;;;;;4956837;29;20520;-72
2023/06/13 07:41:48;;;;;;;3.63;2.10;;;;;;;;;;4956448;29;20207;-73
2023/06/13 07:44:52;;;;;;;5.40;2.60;;;;;;;;;;4956458;29;20180;-72
2023/06/13 07:47:57;;;;;;;9.50;3.63;;;;;;;;;;4956778;29;20646;-72
2023/06/13 07:51:02;;;;;;;4.13;2.40;;;;;;;;;;4956532;29;20187;-73
2023/06/13 07:54:06;;;;;;;6.43;2.63;;;;;;;;;;4955979;29;20180;-72
2023/06/13 07:57:10;;;;;;;8.43;2.73;;;;;;;;;;4956722;29;20187;-73
2023/06/13 08:00:16;;;;;;;5.20;2.80;;;;;;;;;;4956452;29;20520;-72
2023/06/13 08:03:20;;;;;;;5.23;2.10;;;;;;;;;;4956887;29;20179;-72
2023/06/13 08:06:25;;;;;;;5.00;2.53;;;;;;;;;;4956836;29;20183;-72
2023/06/13 08:09:29;;;;;;;6.87;2.30;;;;;;;;;;4956539;29;20187;-73
2023/06/13 08:12:33;;;;;;;4.43;2.30;;;;;;;;;;4955946;29;20227;-72
2023/06/13 08:15:37;;;;;;;3.93;2.17;;;;;;;;;;4955524;29;20184;-73
2023/06/13 08:18:43;;;;;;;4.43;2.50;;;;;;;;;;4956376;29;20184;-72
2023/06/13 08:21:47;;;;;;;5.83;2.37;;;;;;;;;;4955299;29;20219;-72
2023/06/13 08:24:51;;;;;;;7.50;2.87;;;;;;;;;;4955610;29;20185;-72
2023/06/13 08:27:56;;;;;;;5.50;2.40;;;;;;;;;;4955922;29;20185;-72
2023/06/13 08:31:01;;;;;;;3.20;2.10;;;;;;;;;;4956220;29;20184;-73
2023/06/13 08:34:05;;;;;;;4.57;2.60;;;;;;;;;;4955003;29;20185;-72
2023/06/13 08:37:09;;;;;;;3.47;2.10;;;;;;;;;;4955085;29;20554;-73
2023/06/13 08:40:15;;;;;;;3.20;1.90;;;;;;;;;;4955346;28;20189;-72
2023/06/13 08:43:20;;;;;;;4.90;2.10;;;;;;;;;;4955353;29;20635;-73
2023/06/13 08:46:24;;;;;;;10.10;2.33;;;;;;;;;;4955557;29;20182;-73
2023/06/13 08:49:28;;;;;;;5.00;2.13;;;;;;;;;;4955837;29;20196;-72
2023/06/13 08:52:43;;;;;;;10.37;2.97;;;;;;;;;;4955276;29;20244;-72
2023/06/13 08:55:49;;;;;;;14.80;4.20;;;;;;;;;;4955107;29;20208;-72
2023/06/13 08:59:00;;;;;;;9.38;2.60;;;;;;;;;;4944404;29;20180;-72
2023/06/13 09:02:05;;;;;;;23.20;4.38;;;;;;;;;;4955341;29;20216;-72
2023/06/13 09:05:13;;;;;;;10.38;2.75;;;;;;;;;;4955311;29;20188;-72
2023/06/13 09:08:18;;;;;;;5.85;2.83;;;;;;;;;;4955165;29;20186;-72
2023/06/13 09:11:23;;;;;;;3.58;1.80;;;;;;;;;;4955277;29;20221;-71
2023/06/13 09:14:27;;;;;;;2.97;2.03;;;;;;;;;;4955472;29;20183;-72
2023/06/13 09:17:31;;;;;;;38.17;8.93;;;;;;;;;;4955388;29;20185;-72
2023/06/13 09:20:36;;;;;;;4.38;2.05;;;;;;;;;;4954868;29;20186;-73
2023/06/13 09:23:40;;;;;;;27.10;3.67;;;;;;;;;;4955378;29;20169;-72
2023/06/13 09:26:45;;;;;;;5.07;1.98;;;;;;;;;;4955022;29;20192;-72
2023/06/13 09:29:49;;;;;;;4.07;2.00;;;;;;;;;;4954519;29;20180;-72
2023/06/13 09:32:54;;;;;;;5.97;2.40;;;;;;;;;;4955138;29;20561;-72
2023/06/13 09:35:58;;;;;;;2.70;1.85;;;;;;;;;;4955247;29;20208;-72
2023/06/13 09:39:03;;;;;;;5.57;2.13;;;;;;;;;;4955149;29;20637;-72
2023/06/13 09:42:08;;;;;;;2.80;2.22;;;;;;;;;;4954958;29;20209;-71
2023/06/13 09:45:12;;;;;;;6.13;2.30;;;;;;;;;;4955171;29;20182;-73
2023/06/13 09:48:21;;;;;;;8.93;2.40;;;;;;;;;;4954933;29;20191;-73
2023/06/13 09:51:27;;;;;;;12.05;2.60;;;;;;;;;;4943221;29;20221;-73
2023/06/13 09:54:31;;;;;;;4.35;2.25;;;;;;;;;;4957746;29;20192;-73
2023/06/13 09:57:36;;;;;;;6.65;1.83;;;;;;;;;;4958864;29;20177;-72
2023/06/13 10:00:40;;;;;;;3.40;2.00;;;;;;;;;;4958985;29;20183;-73
2023/06/13 10:03:45;;;;;;;3.05;2.30;;;;;;;;;;4969047;28;20178;-73
2023/06/13 10:06:50;;;;;;;5.03;2.05;;;;;;;;;;4958706;29;20184;-73
2023/06/13 10:09:54;;;;;;;3.47;2.08;;;;;;;;;;4958421;29;20193;-73
2023/06/13 10:13:06;;;;;;;6.20;2.38;;;;;;;;;;4958430;29;20565;-73
2023/06/13 10:16:12;;;;;;;3.42;2.10;;;;;;;;;;4957801;29;20182;-73
2023/06/13 10:19:19;;;;;;;3.53;2.25;;;;;;;;;;4958774;29;20206;-74
2023/06/13 10:22:24;;;;;;;2.97;1.98;;;;;;;;;;4957346;29;20215;-73
2023/06/13 10:25:29;;;;;;;5.53;1.95;;;;;;;;;;4958285;29;20179;-73
2023/06/13 10:28:55;;;;;;;5.43;2.38;;;;;;;;;;4958413;29;20187;-74
2023/06/13 10:32:08;;;;;;;6.07;2.30;;;;;;;;;;4957884;29;20221;-74
2023/06/13 10:35:30;;;;;;;4.60;1.98;;;;;;;;;;4958041;29;20660;-73
2023/06/13 10:39:16;;;;;;;5.22;2.40;;;;;;;;;;4958190;29;20521;-73
2023/06/13 10:42:36;;;;;;;6.30;1.95;;;;;;;;;;4957367;29;20223;-73
2023/06/13 10:45:44;;;;;;;5.03;1.90;;;;;;;;;;4957398;29;20638;-73
2023/06/13 10:48:52;;;;;;;3.55;2.00;;;;;;;;;;4958010;29;20181;-73
2023/06/13 10:51:57;;;;;;;3.78;2.00;;;;;;;;;;4958134;29;20568;-74
2023/06/13 10:55:03;;;;;;;3.67;2.10;;;;;;;;;;4958375;29;20178;-74
2023/06/13 10:58:14;;;;;;;4.22;2.10;;;;;;;;;;4957472;29;20190;-74
2023/06/13 11:01:24;;;;;;;4.35;2.17;;;;;;;;;;4956810;29;20689;-74
2023/06/13 11:04:29;;;;;;;2.97;2.00;;;;;;;;;;4957557;28;20182;-73
2023/06/13 11:07:33;;;;;;;4.43;2.50;;;;;;;;;;4952719;29;20196;-73
2023/06/13 11:10:38;;;;;;;2.40;2.00;;;;;;;;;;4957785;29;20187;-73
2023/06/13 11:13:43;;;;;;;3.20;2.05;;;;;;;;;;4957210;29;20222;-74
2023/06/13 11:16:47;;;;;;;4.68;2.35;;;;;;;;;;4956865;29;20198;-73
2023/06/13 11:19:53;;;;;;;3.75;2.17;;;;;;;;;;4956910;29;20187;-73
2023/06/13 11:22:58;;;;;;;6.38;2.20;;;;;;;;;;4957145;29;20216;-74
2023/06/13 11:26:03;;;;;;;5.88;2.60;;;;;;;;;;4945529;29;20187;-73
2023/06/13 11:29:10;;;;;;;16.30;2.53;;;;;;;;;;4945534;29;20627;-73
2023/06/13 11:32:15;;;;;;;4.25;1.92;;;;;;;;;;4957089;29;20223;-73
2023/06/13 11:35:22;;;;;;;2.58;1.95;;;;;;;;;;4957217;29;20188;-73
2023/06/13 11:38:40;;;;;;;4.72;2.03;;;;;;;;;;4955924;29;20211;-73
2023/06/13 11:41:45;;;;;;;3.50;2.00;;;;;;;;;;4956046;29;20216;-73
2023/06/13 11:44:50;;;;;;;3.95;2.20;;;;;;;;;;4956202;29;20184;-72
2023/06/13 11:48:01;;;;;;;3.78;2.08;;;;;;;;;;4956751;29;20547;-73
2023/06/13 11:51:12;;;;;;;4.28;2.03;;;;;;;;;;4956948;29;20697;-73
2023/06/13 11:54:17;;;;;;;18.42;3.05;;;;;;;;;;4956948;29;20219;-73
2023/06/13 11:57:21;;;;;;;3.67;2.08;;;;;;;;;;4956472;29;20195;-73
2023/06/13 12:00:26;;;;;;;3.88;1.88;;;;;;;;;;4956630;29;20199;-73
2023/06/13 12:03:37;;;;;;;4.28;2.10;;;;;;;;;;4956704;28;20219;-73
2023/06/13 12:06:41;;;;;;;4.45;2.28;;;;;;;;;;4956251;29;20659;-73
2023/06/13 12:09:46;;;;;;;4.50;2.33;;;;;;;;;;4947816;29;20184;-73
2023/06/13 12:12:59;;;;;;;4.25;2.20;;;;;;;;;;4953303;29;20227;-73
2023/06/13 12:16:04;;;;;;;3.63;2.30;;;;;;;;;;4943934;29;20179;-73
2023/06/13 12:19:11;;;;;;;3.47;2.05;;;;;;;;;;4956098;29;20192;-73
2023/06/13 12:22:16;;;;;;;3.90;2.38;;;;;;;;;;4955447;29;20211;-73
2023/06/13 12:25:20;;;;;;;4.95;2.03;;;;;;;;;;4955762;29;20173;-73
2023/06/13 12:28:24;;;;;;;2.28;2.00;;;;;;;;;;4955837;29;20631;-73
2023/06/13 12:31:47;;;;;;;7.63;2.20;;;;;;;;;;4954909;29;20212;-73
2023/06/13 12:34:52;;;;;;;5.38;2.08;;;;;;;;;;4955333;29;20212;-74
2023/06/13 12:37:59;;;;;;;2.40;2.20;;;;;;;;;;4956054;29;20184;-73
2023/06/13 12:41:14;;;;;;;3.95;2.17;;;;;;;;;;4955814;29;20219;-75
2023/06/13 12:44:21;;;;;;;6.93;2.67;;;;;;;;;;4955748;29;20172;-74
2023/06/13 12:47:26;;;;;;;2.75;2.40;;;;;;;;;;4955300;29;20591;-73
2023/06/13 12:50:37;;;;;;;4.45;1.95;;;;;;;;;;4955643;29;20184;-73
2023/06/13 12:53:41;;;;;;;3.08;2.15;;;;;;;;;;4955310;29;20211;-73
2023/06/13 12:56:57;;;;;;;5.30;2.47;;;;;;;;;;4955736;29;20179;-73
2023/06/13 13:00:01;;;;;;;4.55;2.30;;;;;;;;;;4955778;29;20180;-73
2023/06/13 13:03:06;;;;;;;5.30;2.15;;;;;;;;;;4955132;29;20223;-73
2023/06/13 13:06:10;;;;;;;3.67;2.40;;;;;;;;;;4955209;29;20647;-73
2023/06/13 13:09:14;;;;;;;4.13;2.20;;;;;;;;;;4943623;29;20191;-73
2023/06/13 13:12:18;;;;;;;5.55;2.22;;;;;;;;;;4954678;29;20223;-73
2023/06/13 13:15:22;;;;;;;6.72;2.22;;;;;;;;;;4955140;29;20184;-72
2023/06/13 13:18:27;;;;;;;6.00;2.50;;;;;;;;;;4954476;29;20183;-73
2023/06/13 13:21:32;;;;;;;3.67;2.10;;;;;;;;;;4955148;29;20223;-72
2023/06/13 13:24:37;;;;;;;5.32;2.50;;;;;;;;;;4955085;29;20200;-73
2023/06/13 13:27:41;;;;;;;7.28;2.30;;;;;;;;;;4954304;29;20184;-73
2023/06/13 13:30:45;;;;;;;4.97;2.55;;;;;;;;;;4955094;29;20180;-72
2023/06/13 13:33:49;;;;;;;4.47;2.30;;;;;;;;;;4954404;29;20655;-73
2023/06/13 13:36:53;;;;;;;6.03;2.35;;;;;;;;;;4974037;23;20231;-71
2023/06/13 13:39:57;;;;;;;3.13;2.40;;;;;;;;;;4974291;28;20180;-72
2023/06/13 13:43:01;;;;;;;3.30;2.30;;;;;;;;;;4973538;28;20222;-72
2023/06/13 13:46:05;;;;;;;2.65;2.45;;;;;;;;;;4974329;28;20198;-72
2023/06/13 13:49:09;;;;;;;5.93;2.33;;;;;;;;;;4974332;28;20191;-72
2023/06/13 13:52:13;;;;;;;8.15;2.50;;;;;;;;;;4974168;28;20218;-72
2023/06/13 13:55:17;;;;;;;3.38;1.88;;;;;;;;;;4973652;28;20207;-71
2023/06/13 13:58:22;;;;;;;3.28;2.42;;;;;;;;;;4974472;28;20180;-72
2023/06/13 14:01:26;;;;;;;5.97;2.42;;;;;;;;;;4974001;28;20215;-72
2023/06/13 14:04:32;;;;;;;2.42;2.20;;;;;;;;;;4962333;28;20176;-72
2023/06/13 14:07:36;;;;;;;5.50;2.13;;;;;;;;;;4973885;28;20183;-72
2023/06/13 14:10:40;;;;;;;6.72;2.55;;;;;;;;;;4974146;28;20179;-71
2023/06/13 14:13:44;;;;;;;3.75;2.20;;;;;;;;;;4973963;28;20223;-72
2023/06/13 14:16:50;;;;;;;4.82;2.17;;;;;;;;;;4974038;28;20649;-72
2023/06/13 14:19:53;;;;;;;3.47;2.20;;;;;;;;;;4974149;28;20188;-72
2023/06/13 14:22:57;;;;;;;5.20;2.60;;;;;;;;;;4972906;28;20227;-71
2023/06/13 14:26:01;;;;;;;2.88;2.30;;;;;;;;;;4973464;28;20618;-72
2023/06/13 14:29:05;;;;;;;6.07;2.58;;;;;;;;;;4973925;28;20639;-72
2023/06/13 14:32:10;;;;;;;5.50;2.30;;;;;;;;;;4972983;28;20219;-71
2023/06/13 14:35:15;;;;;;;2.72;2.08;;;;;;;;;;4973802;28;20215;-72
2023/06/13 14:38:19;;;;;;;6.22;2.70;;;;;;;;;;4973702;28;20207;-72
2023/06/13 14:41:24;;;;;;;4.03;2.40;;;;;;;;;;4976364;28;20682;-72
2023/06/13 14:44:28;;;;;;;2.28;2.08;;;;;;;;;;4977034;28;20183;-72
2023/06/13 14:47:32;;;;;;;3.30;2.50;;;;;;;;;;4976163;28;20175;-71
2023/06/13 14:50:36;;;;;;;3.83;2.33;;;;;;;;;;4976614;28;20175;-72
2023/06/13 14:53:40;;;;;;;4.15;2.20;;;;;;;;;;4976252;28;20218;-72
2023/06/13 14:56:44;;;;;;;4.50;2.30;;;;;;;;;;4976477;28;20187;-71
2023/06/13 14:59:49;;;;;;;4.07;2.38;;;;;;;;;;4976988;28;20631;-70
2023/06/13 15:02:53;;;;;;;4.82;2.38;;;;;;;;;;4977205;28;20219;-72
2023/06/13 15:05:57;;;;;;;6.72;2.40;;;;;;;;;;4976869;28;20179;-72
2023/06/13 15:09:01;;;;;;;4.13;2.30;;;;;;;;;;4976592;28;20179;-72
2023/06/13 15:12:05;;;;;;;6.97;2.70;;;;;;;;;;4975665;28;20214;-70
2023/06/13 15:15:10;;;;;;;6.22;2.33;;;;;;;;;;4976432;28;20206;-69
2023/06/13 15:18:14;;;;;;;3.65;1.90;;;;;;;;;;4977151;28;20179;-69
2023/06/13 15:21:18;;;;;;;8.60;2.38;;;;;;;;;;4976625;28;20222;-70
2023/06/13 15:24:22;;;;;;;4.35;2.13;;;;;;;;;;4976257;28;20176;-70
2023/06/13 15:27:27;;;;;;;2.38;1.92;;;;;;;;;;4975938;28;20183;-71
2023/06/13 15:30:31;;;;;;;5.35;2.30;;;;;;;;;;4975917;28;20518;-72
2023/06/13 15:33:35;;;;;;;2.25;2.00;;;;;;;;;;4977169;28;20519;-72
2023/06/13 15:36:39;;;;;;;2.63;2.13;;;;;;;;;;4975879;28;20211;-72
2023/06/13 15:39:43;;;;;;;2.83;2.17;;;;;;;;;;4976665;28;20182;-72
2023/06/13 15:42:47;;;;;;;5.40;2.25;;;;;;;;;;4976172;28;20708;-71
2023/06/13 15:45:52;;;;;;;11.80;2.70;;;;;;;;;;4976237;28;20186;-71
2023/06/13 15:48:56;;;;;;;6.32;2.60;;;;;;;;;;4975361;28;20203;-72
2023/06/13 15:52:00;;;;;;;8.07;2.25;;;;;;;;;;4974562;28;20226;-71
2023/06/13 15:55:05;;;;;;;5.30;2.53;;;;;;;;;;4986064;28;20214;-71
2023/06/13 15:58:10;;;;;;;10.60;3.20;;;;;;;;;;4976247;28;20185;-71
2023/06/13 16:01:15;;;;;;;4.15;2.38;;;;;;;;;;4964178;28;20235;-71
2023/06/13 16:04:19;;;;;;;3.17;2.20;;;;;;;;;;4975666;28;20182;-71
2023/06/13 16:07:23;;;;;;;3.85;2.00;;;;;;;;;;4976057;28;20178;-71
2023/06/13 16:10:27;;;;;;;4.53;2.35;;;;;;;;;;4963841;28;20636;-72
2023/06/13 16:13:31;;;;;;;4.72;2.28;;;;;;;;;;4975932;28;20633;-72
2023/06/13 16:16:35;;;;;;;10.40;2.60;;;;;;;;;;4975641;28;20649;-72
2023/06/13 16:19:39;;;;;;;4.33;2.33;;;;;;;;;;4975626;28;20654;-71
2023/06/13 16:22:44;;;;;;;5.73;2.83;;;;;;;;;;4975662;28;20220;-71
2023/06/13 16:25:48;;;;;;;5.63;2.37;;;;;;;;;;4985897;28;20180;-72
2023/06/13 16:28:52;;;;;;;7.60;2.33;;;;;;;;;;4963704;28;20188;-72
2023/06/13 16:31:56;;;;;;;4.93;2.40;;;;;;;;;;4975237;28;20231;-71
2023/06/13 16:35:01;;;;;;;2.47;2.20;;;;;;;;;;4975006;28;20202;-72
2023/06/13 16:38:06;;;;;;;3.27;2.20;;;;;;;;;;4975541;28;20211;-71
2023/06/13 16:41:10;;;;;;;4.93;2.23;;;;;;;;;;4963337;28;20674;-71
2023/06/13 16:44:14;;;;;;;4.60;2.60;;;;;;;;;;4974618;28;20179;-71
2023/06/13 16:47:18;;;;;;;3.80;2.63;;;;;;;;;;4975317;28;20181;-71
2023/06/13 16:50:23;;;;;;;10.17;3.00;;;;;;;;;;4974247;28;20181;-72
2023/06/13 16:53:27;;;;;;;11.43;3.37;;;;;;;;;;4973937;28;20196;-71
2023/06/13 16:56:32;;;;;;;6.33;2.50;;;;;;;;;;4975417;28;20177;-71
2023/06/13 16:59:38;;;;;;;7.00;2.33;;;;;;;;;;4974344;28;20524;-70
2023/06/13 17:02:42;;;;;;;4.03;2.63;;;;;;;;;;4973562;28;20696;-70
2023/06/13 17:05:46;;;;;;;5.03;2.50;;;;;;;;;;4974773;28;20191;-71
2023/06/13 17:08:50;;;;;;;5.37;2.57;;;;;;;;;;4974832;28;20636;-70
2023/06/13 17:11:54;;;;;;;9.67;4.47;;;;;;;;;;4974599;28;20215;-70
2023/06/13 17:14:59;;;;;;;4.50;2.40;;;;;;;;;;4974281;28;20213;-70
2023/06/13 17:18:03;;;;;;;4.03;2.30;;;;;;;;;;4962999;28;20189;-70
2023/06/13 17:21:08;;;;;;;5.27;2.50;;;;;;;;;;4974499;28;20219;-71
2023/06/13 17:24:14;;;;;;;4.00;2.87;;;;;;;;;;4974541;28;20200;-71
2023/06/13 17:27:18;;;;;;;10.23;2.70;;;;;;;;;;4973734;28;20194;-71
2023/06/13 17:30:23;;;;;;;5.20;2.60;;;;;;;;;;4974439;28;20202;-70
2023/06/13 17:33:27;;;;;;;8.03;2.97;;;;;;;;;;4973884;28;20659;-70
2023/06/13 17:36:31;;;;;;;2.30;2.07;;;;;;;;;;4974548;28;20172;-72
2023/06/13 17:39:37;;;;;;;9.40;2.87;;;;;;;;;;4973897;28;20183;-70
2023/06/13 17:42:41;;;;;;;4.07;2.43;;;;;;;;;;4974370;28;20219;-70
2023/06/13 17:45:45;;;;;;;8.90;2.33;;;;;;;;;;4974016;28;20183;-70
2023/06/13 17:48:49;;;;;;;6.33;2.77;;;;;;;;;;4974027;28;20174;-70
2023/06/13 17:51:54;;;;;;;3.83;2.60;;;;;;;;;;4974119;28;20706;-71
2023/06/13 17:54:58;;;;;;;6.07;2.20;;;;;;;;;;4973402;28;20215;-71
2023/06/13 17:58:02;;;;;;;3.30;2.43;;;;;;;;;;4974244;28;20187;-71
2023/06/13 18:01:06;;;;;;;2.63;2.40;;;;;;;;;;4973356;28;20223;-71
2023/06/13 18:04:11;;;;;;;4.00;2.37;;;;;;;;;;4974181;28;20179;-71
2023/06/13 18:07:15;;;;;;;3.93;2.23;;;;;;;;;;4973868;28;20182;-71
2023/06/13 18:10:23;;;;;;;7.03;2.17;;;;;;;;;;4973331;28;20187;-71
2023/06/13 18:13:28;;;;;;;6.10;2.37;;;;;;;;;;4973067;28;20195;-71
2023/06/13 18:16:35;;;;;;;4.10;2.50;;;;;;;;;;4977636;28;20689;-71
2023/06/13 18:19:39;;;;;;;6.50;2.67;;;;;;;;;;4976746;28;20546;-71
2023/06/13 18:22:43;;;;;;;4.40;2.47;;;;;;;;;;4977540;28;20218;-71
2023/06/13 18:25:48;;;;;;;5.13;2.47;;;;;;;;;;4977336;28;20199;-71
2023/06/13 18:28:52;;;;;;;5.90;2.10;;;;;;;;;;4966002;28;20179;-71
2023/06/13 18:31:56;;;;;;;3.43;2.23;;;;;;;;;;4977010;28;20218;-71